Time;durP1;ratioP1;P1;durP2;ratioP2;P2;SDS_P1;SDS_P2;PMS_P1;PMS_P2;Temp;Humidity;BMP_temperature;BMP_pressure;BME280_temperature;BME280_humidity;BME280_pressure;Samples;Min_cycle;Max_cycle;Signal;HPM_P1;HPM_P2
2023/01/25 00:00:49;;;;;;;0.70;0.70;;;5.10;75.30;;;3.98;62.95;96421.38;5079581;28;20234;-35
2023/01/25 00:03:16;;;;;;;0.70;0.70;;;5.10;75.30;;;3.98;62.99;96418.75;5097222;28;20226;-39
2023/01/25 00:05:44;;;;;;;0.80;0.80;;;5.10;75.30;;;3.99;63.00;96417.81;5079483;28;20622;-39
2023/01/25 00:08:11;;;;;;;0.70;0.70;;;5.10;75.30;;;3.99;63.20;96418.66;5097306;28;20191;-39
2023/01/25 00:10:38;;;;;;;0.80;0.80;;;5.10;75.30;;;4.01;63.04;96418.53;5096995;28;20190;-39
2023/01/25 00:13:05;;;;;;;0.70;0.70;;;5.10;75.30;;;4.00;63.01;96409.91;5097063;28;20587;-39
2023/01/25 00:15:32;;;;;;;0.70;0.70;;;5.10;75.20;;;4.00;63.35;96416.88;5079479;28;20191;-39
2023/01/25 00:17:59;;;;;;;0.65;0.65;;;5.10;75.20;;;3.99;63.00;96418.66;5097299;28;20274;-38
2023/01/25 00:20:26;;;;;;;0.80;0.80;;;5.10;75.20;;;3.99;63.26;96408.25;5096658;28;20548;-39
2023/01/25 00:22:53;;;;;;;0.70;0.70;;;5.10;75.10;;;3.97;63.08;96410.13;5079313;28;20206;-38
2023/01/25 00:25:20;;;;;;;0.80;0.80;;;5.10;75.10;;;3.96;62.79;96420.63;5096675;28;20202;-39
2023/01/25 00:27:47;;;;;;;0.70;0.70;;;5.10;75.10;;;3.96;63.27;96412.84;5079418;28;20198;-39
2023/01/25 00:30:15;;;;;;;0.70;0.70;;;5.10;75.10;;;3.94;63.26;96409.53;5079344;28;20290;-35
2023/01/25 00:32:57;;;;;;;0.80;0.80;;;5.10;75.10;;;3.93;63.29;96406.13;5096649;28;20209;-37
2023/01/25 00:35:31;;;;;;;0.80;0.80;;;5.10;75.10;;;3.92;63.22;96401.88;5079721;28;20271;-35
2023/01/25 00:38:02;;;;;;;0.68;0.68;;;5.10;75.10;;;3.90;63.08;96401.13;5096489;28;20522;-38
2023/01/25 00:40:29;;;;;;;0.80;0.80;;;5.10;75.10;;;3.91;63.28;96404.59;5078834;28;20206;-39
2023/01/25 00:42:59;;;;;;;0.60;0.60;;;5.10;75.10;;;3.91;63.18;96408.00;5096299;28;20490;-38
2023/01/25 00:45:26;;;;;;;0.80;0.80;;;5.10;75.20;;;3.93;63.25;96413.06;5077715;28;20695;-39
2023/01/25 00:47:55;;;;;;;0.70;0.70;;;5.10;75.20;;;3.95;63.25;96400.81;5096762;28;20205;-37
2023/01/25 00:50:22;;;;;;;0.70;0.70;;;5.10;75.30;;;3.97;63.47;96399.75;5078646;28;20195;-38
2023/01/25 00:52:49;;;;;;;0.70;0.70;;;5.10;75.30;;;3.99;63.22;96402.22;5078172;28;20199;-38
2023/01/25 00:55:16;;;;;;;0.70;0.70;;;5.10;75.30;;;4.00;63.09;96406.47;5096121;28;20209;-39
2023/01/25 00:57:44;;;;;;;0.80;0.80;;;5.10;75.20;;;3.98;63.09;96401.41;5078477;28;20638;-37
2023/01/25 01:00:12;;;;;;;0.80;0.80;;;5.10;75.20;;;3.99;63.03;96399.63;5078119;28;20227;-39
2023/01/25 01:02:39;;;;;;;0.70;0.70;;;5.10;75.20;;;3.99;63.35;96397.03;5077789;28;20739;-38
2023/01/25 01:05:07;;;;;;;0.80;0.80;;;5.10;75.20;;;3.99;63.26;96397.88;5096351;28;20218;-39
2023/01/25 01:07:34;;;;;;;0.70;0.70;;;5.10;75.20;;;4.00;63.20;96396.94;5095901;28;20191;-38
2023/01/25 01:10:02;;;;;;;0.80;0.80;;;5.10;75.20;;;4.00;63.19;96396.94;5077939;28;20194;-39
2023/01/25 01:12:29;;;;;;;0.70;0.70;;;5.10;75.30;;;4.00;63.16;96409.06;5095639;28;20203;-38
2023/01/25 01:14:56;;;;;;;0.80;0.80;;;5.10;75.20;;;4.00;63.36;96409.91;5095791;28;20194;-38
2023/01/25 01:17:24;;;;;;;0.70;0.70;;;5.20;75.30;;;3.99;63.19;96408.25;5095892;28;20191;-38
2023/01/25 01:19:51;;;;;;;0.90;0.90;;;5.10;75.30;;;3.98;63.24;96406.59;5078176;28;20613;-39
2023/01/25 01:22:18;;;;;;;0.80;0.80;;;5.10;75.20;;;3.98;63.13;96409.19;5077937;28;20644;-39
2023/01/25 01:24:48;;;;;;;0.50;0.50;;;5.10;75.20;;;3.98;63.13;96404.00;5061513;28;20212;-38
2023/01/25 01:27:15;;;;;;;0.70;0.70;;;5.10;75.20;;;3.99;63.09;96402.22;5095838;28;20199;-39
2023/01/25 01:29:42;;;;;;;0.80;0.80;;;5.10;75.20;;;3.98;63.19;96400.59;5095524;28;20191;-39
2023/01/25 01:32:09;;;;;;;0.70;0.70;;;5.10;75.20;;;3.99;63.23;96402.22;5095361;28;20191;-39
2023/01/25 01:34:37;;;;;;;0.80;0.80;;;5.10;75.20;;;3.98;63.07;96408.38;5077675;28;20209;-39
2023/01/25 01:37:04;;;;;;;0.90;0.90;;;5.10;75.20;;;3.98;62.96;96403.19;5061363;28;20202;-37
2023/01/25 01:39:31;;;;;;;0.70;0.70;;;5.10;75.20;;;3.96;63.17;96395.50;5095287;28;20210;-36
2023/01/25 01:41:58;;;;;;;0.80;0.80;;;5.10;75.20;;;3.96;62.97;96400.69;5061317;28;20529;-38
2023/01/25 01:44:53;;;;;;;0.70;0.70;;;5.10;75.20;;;3.95;63.17;96400.81;5077475;28;20226;-37
2023/01/25 01:47:32;;;;;;;0.70;0.70;;;5.10;75.30;;;3.96;63.16;96397.28;5077991;28;20584;-39
2023/01/25 01:50:19;;;;;;;0.80;0.80;;;5.10;75.30;;;3.97;63.48;96401.53;5078528;28;20210;-39
2023/01/25 01:52:46;;;;;;;0.70;0.70;;;5.10;75.40;;;3.99;63.70;96397.03;5095087;28;20240;-39
2023/01/25 01:55:20;;;;;;;0.80;0.80;;;5.10;75.40;;;3.98;63.60;96393.63;5077529;28;20183;-39
2023/01/25 01:57:52;;;;;;;0.70;0.70;;;5.10;75.40;;;4.00;63.34;96390.91;5061189;28;20210;-39
2023/01/25 02:00:23;;;;;;;0.70;0.70;;;5.10;75.40;;;4.01;63.59;96385.59;5061084;28;20649;-31
2023/01/25 02:02:51;;;;;;;0.70;0.70;;;5.10;75.40;;;4.03;63.53;96388.09;5095368;28;20240;-35
2023/01/25 02:05:40;;;;;;;0.80;0.80;;;5.10;75.40;;;4.05;63.53;96387.97;5077714;28;20199;-40
2023/01/25 02:08:13;;;;;;;0.85;0.85;;;5.10;75.40;;;4.05;63.18;96391.38;5061413;28;20201;-33
2023/01/25 02:10:42;;;;;;;0.70;0.70;;;5.20;75.50;;;4.05;63.45;96391.38;5061658;28;20218;-39
2023/01/25 02:13:09;;;;;;;0.70;0.70;;;5.20;75.50;;;4.07;63.22;96386.09;5078013;28;20202;-40
2023/01/25 02:15:45;;;;;;;0.70;0.70;;;5.20;75.50;;;4.06;63.37;96398.22;5060835;28;20203;-33
2023/01/25 02:18:13;;;;;;;0.80;0.80;;;5.20;75.50;;;4.06;63.43;96395.63;5060862;28;20587;-39
2023/01/25 02:20:42;;;;;;;0.70;0.70;;;5.20;75.50;;;4.07;63.37;96399.06;5060814;28;20210;-37
2023/01/25 02:23:23;;;;;;;0.60;0.60;;;5.20;75.50;;;4.05;63.29;96399.16;5077544;28;20194;-39
2023/01/25 02:25:50;;;;;;;0.70;0.70;;;5.10;75.40;;;4.06;63.36;96400.00;5077872;28;20516;-39
2023/01/25 02:28:25;;;;;;;0.70;0.70;;;5.20;75.50;;;4.06;63.52;96400.00;5060602;28;20226;-40
2023/01/25 02:30:52;;;;;;;0.70;0.70;;;5.20;75.50;;;4.07;63.65;96399.06;5061067;28;20189;-40
2023/01/25 02:33:27;;;;;;;0.90;0.90;;;5.20;75.50;;;4.08;63.38;96391.16;5077027;28;20653;-32
2023/01/25 02:36:07;;;;;;;0.70;0.70;;;5.20;75.50;;;4.08;63.31;96390.34;5060724;28;20194;-39
2023/01/25 02:38:39;;;;;;;0.80;0.80;;;5.20;75.50;;;4.08;63.46;96390.34;5077340;28;20294;-33
2023/01/25 02:41:17;;;;;;;0.70;0.70;;;5.20;75.50;;;4.08;63.60;96390.34;5077065;28;20812;-33
2023/01/25 02:43:45;;;;;;;0.80;0.80;;;5.20;75.50;;;4.07;63.31;96389.50;5060407;28;20532;-33
2023/01/25 02:46:21;;;;;;;0.70;0.70;;;5.20;75.50;;;4.06;63.46;96384.44;5094627;28;20251;-33
2023/01/25 02:48:48;;;;;;;0.73;0.73;;;5.20;75.50;;;4.06;63.53;96384.44;5094816;28;20504;-37
2023/01/25 02:51:15;;;;;;;0.60;0.60;;;5.20;75.50;;;4.04;63.42;96379.38;5094901;28;20498;-33
2023/01/25 02:53:43;;;;;;;0.70;0.70;;;5.20;75.50;;;4.04;63.52;96389.75;5094557;28;20623;-36
2023/01/25 02:56:10;;;;;;;0.80;0.80;;;5.10;75.40;;;4.04;63.57;96392.34;5094524;28;20281;-39
2023/01/25 02:58:37;;;;;;;0.80;0.80;;;5.20;75.50;;;4.03;63.64;96382.91;5076713;28;20543;-38
2023/01/25 03:01:04;;;;;;;0.70;0.70;;;5.10;75.40;;;4.03;63.65;96382.91;5094703;28;20206;-39
2023/01/25 03:03:31;;;;;;;0.80;0.80;;;5.20;75.50;;;4.04;63.61;96374.19;5076446;28;20662;-40
2023/01/25 03:05:59;;;;;;;0.80;0.80;;;5.20;75.50;;;4.05;63.65;96382.78;5094404;28;20203;-33
2023/01/25 03:08:26;;;;;;;0.70;0.70;;;5.20;75.50;;;4.04;63.52;96371.56;5079696;28;20205;-33
2023/01/25 03:10:59;;;;;;;0.70;0.70;;;5.20;75.50;;;4.03;63.42;96369.06;5080500;28;20202;-35
2023/01/25 03:13:29;;;;;;;0.80;0.80;;;5.10;75.40;;;4.00;63.23;96370.13;5063918;28;20221;-35
2023/01/25 03:16:07;;;;;;;0.80;0.80;;;5.10;75.40;;;3.99;63.25;96358.09;5080192;28;20248;-40
2023/01/25 03:18:34;;;;;;;0.70;0.70;;;5.10;75.40;;;3.98;63.46;96359.88;5080608;28;20213;-32
2023/01/25 03:21:11;;;;;;;0.70;0.70;;;5.10;75.50;;;3.98;63.40;96356.47;5080187;28;20237;-39
2023/01/25 03:23:39;;;;;;;0.80;0.80;;;5.10;75.50;;;3.99;63.35;96355.50;5080227;28;20622;-32
2023/01/25 03:26:17;;;;;;;0.70;0.70;;;5.10;75.60;;;3.99;63.62;96348.56;5080191;28;20330;-36
2023/01/25 03:29:07;;;;;;;0.70;0.70;;;5.10;75.50;;;3.99;63.42;96345.94;5087135;28;20203;-35
2023/01/25 03:31:38;;;;;;;0.80;0.80;;;5.10;75.60;;;4.00;63.62;96339.81;5080308;28;20214;-32
2023/01/25 03:34:06;;;;;;;0.80;0.80;;;5.10;75.60;;;4.01;63.62;96338.84;5079939;28;20202;-39
2023/01/25 03:36:37;;;;;;;0.70;0.70;;;5.10;75.60;;;4.02;63.48;96334.50;5080201;28;20521;-40
2023/01/25 03:39:04;;;;;;;0.60;0.60;;;5.10;75.60;;;4.03;63.56;96335.31;5063402;28;20225;-38
2023/01/25 03:41:38;;;;;;;0.60;0.60;;;5.20;75.60;;;4.02;63.35;96326.72;5064002;28;20267;-39
2023/01/25 03:44:12;;;;;;;0.70;0.70;;;5.10;75.60;;;4.00;63.59;96323.41;5079620;28;20193;-37
2023/01/25 03:46:41;;;;;;;0.70;0.70;;;5.10;75.50;;;3.99;63.72;96319.16;5079939;28;20242;-36
2023/01/25 03:49:08;;;;;;;0.70;0.70;;;5.10;75.50;;;3.96;63.48;96320.22;5097456;28;20565;-39
2023/01/25 03:51:36;;;;;;;0.80;0.80;;;5.10;75.50;;;3.93;63.30;96312.66;5063408;28;20293;-39
2023/01/25 03:54:04;;;;;;;0.70;0.70;;;5.10;75.50;;;3.90;63.59;96318.09;5079547;28;20206;-37
2023/01/25 03:56:35;;;;;;;0.70;0.70;;;5.10;75.50;;;3.87;63.60;96320.94;5063351;28;20192;-39
2023/01/25 03:59:09;;;;;;;0.80;0.80;;;5.00;75.40;;;3.84;63.50;96316.78;5079428;28;20187;-36
2023/01/25 04:01:36;;;;;;;0.70;0.70;;;5.00;75.50;;;3.83;63.82;96312.53;5079186;28;20547;-34
2023/01/25 04:04:03;;;;;;;0.80;0.80;;;5.00;75.40;;;3.84;63.69;96313.34;5097237;28;20287;-39
2023/01/25 04:06:33;;;;;;;0.70;0.70;;;5.00;75.50;;;3.82;63.71;96313.47;5063176;28;20683;-39
2023/01/25 04:09:02;;;;;;;0.80;0.80;;;5.00;75.50;;;3.82;63.82;96312.63;5079226;28;20252;-37
2023/01/25 04:11:36;;;;;;;0.80;0.80;;;4.90;75.50;;;3.80;63.62;96317.13;5079332;28;20198;-38
2023/01/25 04:14:04;;;;;;;0.70;0.70;;;4.90;75.40;;;3.76;63.75;96311.34;5062740;28;20195;-33
2023/01/25 04:16:39;;;;;;;0.70;0.70;;;5.00;75.50;;;3.74;63.70;96310.63;5064088;28;20236;-40
2023/01/25 04:19:25;;;;;;;0.63;0.63;;;4.90;75.50;;;3.71;63.52;96310.88;5096054;28;20625;-37
2023/01/25 04:21:57;;;;;;;0.88;0.88;;;4.90;75.50;;;3.67;63.58;96310.25;5078933;28;20211;-40
2023/01/25 04:24:30;;;;;;;0.75;0.75;;;4.80;75.40;;;3.67;63.70;96302.47;5078821;28;20198;-37
2023/01/25 04:26:57;;;;;;;0.70;0.70;;;4.80;75.50;;;3.66;63.55;96295.63;5078866;28;20282;-37
2023/01/25 04:29:26;;;;;;;0.70;0.70;;;4.80;75.50;;;3.68;63.71;96282.53;5078941;28;20251;-36
2023/01/25 04:32:08;;;;;;;0.70;0.70;;;4.80;75.60;;;3.69;63.70;96290.19;5078815;28;20195;-39
2023/01/25 04:34:35;;;;;;;0.70;0.70;;;4.80;75.60;;;3.70;63.78;96285.84;5096641;28;20207;-39
2023/01/25 04:37:02;;;;;;;0.68;0.68;;;4.80;75.60;;;3.71;63.71;96292.69;5078698;28;20209;-37
2023/01/25 04:39:34;;;;;;;0.80;0.80;;;4.80;75.60;;;3.70;63.57;96291.03;5078820;28;20645;-38
2023/01/25 04:42:01;;;;;;;0.70;0.70;;;4.80;75.60;;;3.70;63.77;96291.03;5078515;28;20226;-39
2023/01/25 04:44:28;;;;;;;0.70;0.70;;;4.80;75.60;;;3.69;63.65;96287.59;5078324;28;20215;-39
2023/01/25 04:46:57;;;;;;;0.80;0.80;;;4.80;75.60;;;3.71;63.77;96282.31;5078481;28;20233;-35
2023/01/25 04:49:24;;;;;;;0.70;0.70;;;4.80;75.70;;;3.72;63.45;96280.53;5078426;28;20199;-39
2023/01/25 04:51:51;;;;;;;0.80;0.80;;;4.80;75.60;;;3.67;63.64;96284.31;5078345;28;20226;-34
2023/01/25 04:54:18;;;;;;;0.70;0.70;;;4.70;75.60;;;3.64;63.44;96275.94;5078456;28;20195;-39
2023/01/25 04:56:45;;;;;;;0.70;0.70;;;4.70;75.60;;;3.63;63.55;96276.88;5078595;28;20229;-38
2023/01/25 04:59:13;;;;;;;0.80;0.80;;;4.70;75.70;;;3.63;63.61;96271.69;5096006;28;20202;-39
2023/01/25 05:01:40;;;;;;;0.80;0.80;;;4.70;75.70;;;3.66;63.89;96280.06;5078087;28;20218;-39
2023/01/25 05:04:08;;;;;;;0.70;0.70;;;4.70;75.70;;;3.67;63.59;96276.53;5077850;28;20262;-40
2023/01/25 05:06:39;;;;;;;0.80;0.80;;;4.80;75.80;;;3.67;63.79;96273.09;5078178;28;20626;-39
2023/01/25 05:09:08;;;;;;;0.70;0.70;;;4.70;76.50;;;3.66;63.82;96274.88;5078073;28;20282;-37
2023/01/25 05:11:35;;;;;;;0.80;0.80;;;4.80;75.70;;;3.67;63.81;96280.88;5078254;28;20210;-35
2023/01/25 05:14:09;;;;;;;0.70;0.70;;;4.80;75.70;;;3.61;63.26;96279.56;5095976;28;20328;-38
2023/01/25 05:16:36;;;;;;;0.80;0.80;;;4.70;75.60;;;3.60;63.44;96280.53;5077961;28;20202;-38
2023/01/25 05:19:10;;;;;;;0.70;0.70;;;4.70;75.70;;;3.59;63.62;96281.47;5078047;28;20202;-39
2023/01/25 05:21:59;;;;;;;0.80;0.80;;;4.70;75.70;;;3.60;63.73;96280.53;5095920;28;20217;-40
2023/01/25 05:24:34;;;;;;;0.70;0.70;;;4.70;75.70;;;3.57;63.92;96275.56;5077668;28;20209;-40
2023/01/25 05:27:04;;;;;;;0.80;0.80;;;4.70;75.70;;;3.59;64.00;96280.63;5077798;28;20221;-38
2023/01/25 05:29:55;;;;;;;0.70;0.70;;;4.70;75.70;;;3.56;63.95;96276.50;5095122;28;20203;-39
2023/01/25 05:32:42;;;;;;;0.70;0.70;;;4.70;75.70;;;3.55;63.67;96279.19;5080259;28;20209;-38
2023/01/25 05:35:09;;;;;;;0.80;0.80;;;4.70;75.80;;;3.52;63.92;96275.88;5077634;28;20203;-39
2023/01/25 05:37:38;;;;;;;0.80;0.80;;;4.60;75.70;;;3.53;64.02;96267.16;5095373;28;20195;-39
2023/01/25 05:40:10;;;;;;;0.70;0.70;;;4.60;75.80;;;3.56;63.77;96273.91;5077800;28;20191;-39
2023/01/25 05:42:38;;;;;;;0.70;0.70;;;4.70;75.80;;;3.58;63.90;96268.63;5061122;28;20195;-38
2023/01/25 05:45:11;;;;;;;0.70;0.70;;;4.70;75.90;;;3.59;63.85;96265.06;5077533;28;20183;-37
2023/01/25 05:47:39;;;;;;;0.80;0.80;;;4.70;75.90;;;3.59;63.77;96262.47;5061120;28;20279;-39
2023/01/25 05:50:07;;;;;;;0.80;0.80;;;4.70;75.90;;;3.62;64.06;96268.25;5095231;28;20244;-38
2023/01/25 05:52:53;;;;;;;0.60;0.60;;;4.80;75.90;;;3.63;64.10;96274.28;5077491;28;20195;-37
2023/01/25 05:55:20;;;;;;;0.77;0.77;;;4.80;75.80;;;3.64;63.81;96275.94;5077400;28;20191;-38
2023/01/25 05:57:49;;;;;;;0.70;0.70;;;4.80;75.80;;;3.65;63.82;96269.78;5095389;28;20222;-39
2023/01/25 06:00:17;;;;;;;0.80;0.80;;;4.80;75.90;;;3.65;63.76;96273.22;5077840;28;20222;-39
2023/01/25 06:02:44;;;;;;;0.70;0.70;;;4.80;75.90;;;3.64;63.96;96274.16;5077103;28;20670;-38
2023/01/25 06:05:16;;;;;;;0.80;0.80;;;4.70;75.80;;;3.66;63.91;96266.25;5061314;28;20205;-40
2023/01/25 06:07:43;;;;;;;0.80;0.80;;;4.70;75.80;;;3.67;63.96;96275.69;5077475;28;20203;-36
2023/01/25 06:10:11;;;;;;;0.80;0.80;;;4.80;76.00;;;3.69;63.97;96273.81;5077231;28;20263;-37
2023/01/25 06:12:39;;;;;;;0.80;0.80;;;4.80;76.00;;;3.69;64.00;96273.81;5077196;28;20206;-37
2023/01/25 06:15:07;;;;;;;0.80;0.80;;;4.80;76.00;;;3.69;63.98;96269.44;5095053;28;20207;-39
2023/01/25 06:17:35;;;;;;;0.80;0.80;;;4.80;75.90;;;3.72;63.84;96275.34;5095177;28;20289;-38
2023/01/25 06:20:16;;;;;;;0.80;0.80;;;4.80;76.00;;;3.73;63.95;96266.63;5077123;28;20191;-38
2023/01/25 06:22:57;;;;;;;0.80;0.80;;;4.80;76.00;;;3.76;64.14;96258.59;5094818;28;20269;-38
2023/01/25 06:25:24;;;;;;;0.80;0.80;;;4.80;76.00;;;3.77;64.08;96266.28;5094954;28;20197;-39
2023/01/25 06:27:54;;;;;;;0.80;0.80;;;4.80;76.00;;;3.81;64.02;96261.69;5094816;28;20197;-37
2023/01/25 06:30:21;;;;;;;0.80;0.80;;;4.90;76.10;;;3.82;63.73;96269.34;5094944;28;20236;-39
2023/01/25 06:32:49;;;;;;;0.70;0.70;;;4.90;76.10;;;3.83;63.97;96280.56;5094806;28;20194;-39
2023/01/25 06:35:16;;;;;;;0.80;0.80;;;4.90;76.00;;;3.83;64.13;96276.19;5094632;28;20199;-39
2023/01/25 06:37:44;;;;;;;0.80;0.80;;;4.90;76.00;;;3.84;63.93;96277.88;5076926;28;20268;-38
2023/01/25 06:40:11;;;;;;;0.70;0.70;;;4.90;76.00;;;3.87;63.78;96283.75;5077758;28;20213;-39
2023/01/25 06:42:38;;;;;;;0.80;0.80;;;4.90;76.00;;;3.87;63.74;96281.16;5096232;28;20233;-39
2023/01/25 06:45:06;;;;;;;0.70;0.70;;;4.90;75.90;;;3.86;63.71;96277.75;5099317;28;20190;-40
2023/01/25 06:47:33;;;;;;;0.65;0.65;;;4.90;75.90;;;3.86;63.91;96267.34;5098640;28;20225;-40
2023/01/25 06:50:01;;;;;;;0.70;0.70;;;4.90;75.90;;;3.88;63.94;96272.41;5098602;28;20222;-40
2023/01/25 06:52:29;;;;;;;0.80;0.80;;;4.90;75.90;;;3.88;63.84;96275.00;5098565;28;20190;-40
2023/01/25 06:54:56;;;;;;;0.80;0.80;;;4.90;76.00;;;3.87;63.72;96274.19;5098674;28;20195;-40
2023/01/25 06:57:23;;;;;;;0.80;0.80;;;5.00;76.00;;;3.86;64.05;96267.34;5098453;28;20194;-40
2023/01/25 06:59:50;;;;;;;0.70;0.70;;;5.00;76.80;;;3.86;63.80;96269.94;5098498;28;20282;-39
2023/01/25 07:02:17;;;;;;;0.80;0.80;;;5.00;76.00;;;3.88;64.05;96262.03;5098087;28;20246;-40
2023/01/25 07:04:44;;;;;;;0.70;0.70;;;5.00;76.00;;;3.89;63.90;96263.69;5098513;28;20505;-40
2023/01/25 07:07:11;;;;;;;0.70;0.70;;;5.00;76.00;;;3.91;64.10;96254.84;5098299;28;20195;-41
2023/01/25 07:09:38;;;;;;;0.80;0.80;;;5.00;76.00;;;3.94;63.90;96264.16;5098322;28;20241;-40
2023/01/25 07:12:06;;;;;;;0.70;0.70;;;5.00;76.10;;;3.96;63.81;96265.69;5080578;28;20218;-41
2023/01/25 07:14:33;;;;;;;0.80;0.80;;;5.00;76.10;;;3.98;64.03;96263.81;5097817;28;20203;-40
2023/01/25 07:17:00;;;;;;;0.70;0.70;;;5.10;76.20;;;4.01;64.10;96270.53;5098343;28;20224;-40
2023/01/25 07:19:30;;;;;;;0.80;0.80;;;5.10;76.20;;;4.03;64.13;96260.88;5098165;28;20194;-40
2023/01/25 07:21:57;;;;;;;0.70;0.70;;;5.10;76.10;;;4.06;64.01;96258.03;5098059;28;20596;-40
2023/01/25 07:24:25;;;;;;;0.80;0.80;;;5.10;76.10;;;4.09;64.03;96255.22;5097881;28;20195;-40
2023/01/25 07:26:53;;;;;;;0.70;0.70;;;5.10;76.10;;;4.10;64.12;96254.28;5098144;28;20195;-40
2023/01/25 07:29:21;;;;;;;0.70;0.70;;;5.10;76.10;;;4.14;64.06;96258.28;5079691;28;20220;-40
2023/01/25 07:31:48;;;;;;;0.80;0.80;;;5.20;76.20;;;4.16;63.84;96263.34;5079746;28;20206;-40
2023/01/25 07:34:15;;;;;;;0.85;0.85;;;5.20;76.20;;;4.17;64.08;96259.81;5097780;28;20225;-40
2023/01/25 07:36:42;;;;;;;0.60;0.60;;;5.20;76.10;;;4.19;64.18;96262.28;5098220;28;20217;-40
2023/01/25 07:39:10;;;;;;;0.80;0.80;;;5.20;76.10;;;4.24;64.11;96265.38;5097403;28;20191;-40
2023/01/25 07:41:38;;;;;;;0.70;0.70;;;5.20;76.10;;;4.25;63.83;96264.44;5097240;28;20215;-40
2023/01/25 07:44:10;;;;;;;0.70;0.70;;;5.30;76.20;;;4.25;63.94;96260.03;5064065;28;20214;-40
2023/01/25 07:46:42;;;;;;;0.80;0.80;;;5.30;76.10;;;4.27;63.74;96265.09;5079757;28;20210;-32
2023/01/25 07:49:09;;;;;;;0.73;0.73;;;5.30;76.10;;;4.29;63.95;96260.63;5097195;28;20519;-33
2023/01/25 07:51:36;;;;;;;0.70;0.70;;;5.40;76.20;;;4.31;64.16;96256.97;5097492;28;20191;-33
2023/01/25 07:54:04;;;;;;;0.80;0.80;;;5.30;76.10;;;4.35;63.85;96262.75;5097101;28;20222;-33
2023/01/25 07:56:37;;;;;;;0.70;0.70;;;5.40;76.20;;;4.39;64.02;96258.16;5097451;28;20209;-33
2023/01/25 07:59:07;;;;;;;0.90;0.90;;;5.40;76.10;;;4.42;64.00;96253.53;5097741;28;20542;-33
2023/01/25 08:01:35;;;;;;;0.80;0.80;;;5.40;76.10;;;4.44;63.66;96248.22;5079455;28;20225;-33
2023/01/25 08:04:03;;;;;;;0.80;0.80;;;5.50;76.10;;;4.48;63.88;96253.06;5079258;28;20241;-33
2023/01/25 08:06:37;;;;;;;0.70;0.70;;;5.50;76.10;;;4.52;63.92;96247.59;5097426;28;20281;-33
2023/01/25 08:09:11;;;;;;;0.80;0.80;;;5.50;76.10;;;4.55;63.86;96244.78;5097422;28;20215;-33
2023/01/25 08:11:38;;;;;;;0.80;0.80;;;5.50;76.00;;;4.56;63.63;96257.63;5079845;28;20183;-33
2023/01/25 08:14:05;;;;;;;0.80;0.80;;;5.50;76.00;;;4.60;64.09;96261.66;5096890;28;20213;-33
2023/01/25 08:16:32;;;;;;;0.70;0.70;;;5.60;76.00;;;4.63;63.91;96253.59;5096963;28;20190;-33
2023/01/25 08:19:02;;;;;;;0.70;0.70;;;5.60;76.10;;;4.67;63.90;96246.41;5097293;28;20206;-33
2023/01/25 08:21:33;;;;;;;0.80;0.80;;;5.70;76.10;;;4.71;63.69;96244.38;5096637;28;20207;-33
2023/01/25 08:24:04;;;;;;;0.60;0.60;;;5.70;76.10;;;4.74;64.01;96252.75;5097019;28;20175;-33
2023/01/25 08:26:34;;;;;;;0.60;0.60;;;5.70;76.10;;;4.77;63.89;96243.88;5096798;28;20261;-33
2023/01/25 08:29:02;;;;;;;0.70;0.70;;;5.70;76.00;;;4.83;63.55;96246.00;5096831;28;20198;-33
2023/01/25 08:31:32;;;;;;;0.60;0.60;;;5.80;76.10;;;4.84;63.96;96244.25;5096262;28;20194;-33
2023/01/25 08:34:00;;;;;;;0.70;0.70;;;5.80;76.00;;;4.87;63.70;96243.97;5096745;28;20493;-33
2023/01/25 08:36:27;;;;;;;0.80;0.80;;;5.80;75.90;;;4.86;63.70;96240.56;5096630;28;20187;-33
2023/01/25 08:38:58;;;;;;;0.70;0.70;;;5.90;75.90;;;4.89;63.65;96242.91;5078757;28;20691;-33
2023/01/25 08:41:27;;;;;;;0.70;0.70;;;5.90;75.90;;;4.93;63.74;96240.88;5096249;28;20715;-33
2023/01/25 08:43:55;;;;;;;0.70;0.70;;;5.90;75.90;;;4.96;63.94;96227.66;5096526;28;20645;-33
2023/01/25 08:46:26;;;;;;;0.70;0.70;;;5.90;75.90;;;5.01;63.61;96230.69;5062478;28;20222;-33
2023/01/25 08:48:58;;;;;;;0.82;0.82;;;6.00;76.00;;;5.02;63.72;96234.94;5096404;28;20276;-33
2023/01/25 08:51:26;;;;;;;0.80;0.80;;;6.00;76.00;;;5.02;63.41;96224.53;5078366;28;20285;-33
2023/01/25 08:53:53;;;;;;;0.70;0.70;;;6.00;75.80;;;5.03;63.17;96225.34;5078779;28;20319;-33
2023/01/25 08:56:20;;;;;;;0.80;0.80;;;6.00;75.50;;;5.02;63.26;96228.94;5096410;28;20203;-33
2023/01/25 08:58:49;;;;;;;0.95;0.95;;;6.10;75.50;;;5.02;63.02;96228.94;5096212;28;20233;-33
2023/01/25 09:01:18;;;;;;;0.90;0.90;;;6.00;75.40;;;5.04;63.54;96225.25;5078026;28;20630;-33
2023/01/25 09:03:48;;;;;;;0.70;0.70;;;6.00;75.60;;;5.08;63.40;96228.44;5078459;28;20317;-33
2023/01/25 09:06:18;;;;;;;0.80;0.80;;;6.10;75.60;;;5.10;63.09;96226.50;5095733;28;20194;-33
2023/01/25 09:08:46;;;;;;;0.80;0.80;;;6.10;75.60;;;5.15;63.38;96234.78;5095963;28;20214;-33
2023/01/25 09:11:17;;;;;;;0.70;0.70;;;6.10;75.70;;;5.18;63.24;96223.31;5095771;28;20269;-33
2023/01/25 09:13:44;;;;;;;0.70;0.70;;;6.10;75.60;;;5.22;63.02;96222.91;5095958;28;20591;-33
2023/01/25 09:16:21;;;;;;;0.80;0.80;;;6.10;75.50;;;5.25;62.94;96225.25;5095831;28;20593;-33
2023/01/25 09:18:49;;;;;;;0.80;0.80;;;6.20;75.50;;;5.29;63.25;96224.06;5077984;28;20252;-33
2023/01/25 09:21:18;;;;;;;0.70;0.70;;;6.20;75.70;;;5.34;63.35;96221.06;5095516;28;20218;-33
2023/01/25 09:23:51;;;;;;;0.80;0.80;;;6.20;75.70;;;5.40;63.30;96220.56;5095622;28;20657;-33
2023/01/25 09:26:41;;;;;;;0.70;0.70;;;6.30;75.70;;;5.45;63.12;96217.59;5095730;28;20236;-33
2023/01/25 09:29:15;;;;;;;0.70;0.70;;;6.30;75.60;;;5.51;63.27;96222.28;5095576;28;20240;-33
2023/01/25 09:31:42;;;;;;;0.70;0.70;;;6.40;75.80;;;5.59;63.34;96221.63;5077900;28;20191;-33
2023/01/25 09:34:21;;;;;;;0.80;0.80;;;6.40;75.70;;;5.65;63.10;96208.13;5095782;28;20269;-33
2023/01/25 09:36:48;;;;;;;0.80;0.80;;;6.50;75.70;;;5.70;62.88;96208.56;5077946;28;20273;-33
2023/01/25 09:39:15;;;;;;;0.80;0.80;;;6.50;75.80;;;5.75;63.02;96201.19;5095445;28;20286;-33
2023/01/25 09:42:03;;;;;;;0.75;0.75;;;6.60;75.80;;;5.82;62.91;96193.66;5095191;28;20641;-33
2023/01/25 09:45:29;;;;;;;0.80;0.80;;;6.70;75.60;;;5.90;62.86;96193.03;5095401;28;20211;-33
2023/01/25 09:48:28;;;;;;;0.70;0.70;;;6.70;75.60;;;5.90;62.69;96188.63;5095255;28;20212;-33
2023/01/25 09:51:26;;;;;;;0.70;0.70;;;6.80;75.50;;;5.93;62.69;96192.75;5077535;28;20190;-33
2023/01/25 09:53:55;;;;;;;0.70;0.70;;;6.80;75.30;;;5.95;62.31;96179.63;5062625;28;20223;-33
2023/01/25 09:56:26;;;;;;;0.80;0.80;;;6.90;75.40;;;5.96;62.19;96176.88;5078135;28;20205;-33
2023/01/25 09:58:58;;;;;;;0.75;0.75;;;6.90;75.30;;;5.98;62.03;96177.59;5077604;28;20182;-33
2023/01/25 10:01:40;;;;;;;0.80;0.80;;;7.00;75.10;;;5.98;62.19;96168.94;5077455;28;20198;-33
2023/01/25 10:04:34;;;;;;;0.70;0.70;;;7.00;75.00;;;5.99;62.04;96165.41;5077474;28;20226;-33
2023/01/25 10:07:17;;;;;;;0.70;0.70;;;7.00;74.90;;;5.98;61.96;96163.72;5095210;28;20189;-33
2023/01/25 10:09:59;;;;;;;0.60;0.60;;;7.00;74.60;;;5.99;62.12;96161.00;5095057;28;20257;-33
2023/01/25 10:12:35;;;;;;;0.80;0.80;;;7.10;74.70;;;6.06;62.41;96159.53;5060691;28;20237;-33
2023/01/25 10:15:39;;;;;;;0.80;0.80;;;7.10;75.00;;;6.10;61.94;96152.25;5077645;28;20192;-33
2023/01/25 10:18:34;;;;;;;0.60;0.60;;;7.10;74.70;;;6.15;61.83;96146.66;5081529;28;20206;-33
2023/01/25 10:21:12;;;;;;;0.60;0.60;;;7.20;74.60;;;6.20;61.92;96147.06;5081830;28;20183;-33
2023/01/25 10:24:11;;;;;;;0.70;0.70;;;7.20;74.80;;;6.25;62.10;96137.09;5081486;28;20198;-33
2023/01/25 10:26:42;;;;;;;0.63;0.63;;;7.20;74.40;;;6.31;61.96;96135.72;5099223;28;20254;-33
2023/01/25 10:29:26;;;;;;;0.77;0.77;;;7.20;74.90;;;6.38;62.13;96136.84;5081747;28;20523;-33
2023/01/25 10:32:12;;;;;;;0.50;0.50;;;7.30;74.80;;;6.40;61.83;96138.34;5099076;28;20241;-33
2023/01/25 10:34:49;;;;;;;0.70;0.70;;;7.30;74.80;;;6.45;61.76;96137.94;5099206;28;20201;-33
2023/01/25 10:37:30;;;;;;;0.60;0.60;;;7.30;74.70;;;6.47;61.88;96146.47;5099102;28;20175;-34
2023/01/25 10:40:23;;;;;;;0.80;0.80;;;7.30;74.70;;;6.52;61.80;96135.63;5081093;28;20183;-33
2023/01/25 10:42:57;;;;;;;0.80;0.80;;;7.40;74.00;;;6.53;61.57;96130.28;5081325;28;20535;-33
2023/01/25 10:45:24;;;;;;;0.70;0.70;;;7.40;74.10;;;6.54;61.30;96124.09;5065722;28;20235;-33
2023/01/25 10:48:01;;;;;;;0.70;0.70;;;7.40;74.00;;;6.56;61.53;96116.94;5098640;28;20513;-33
2023/01/25 10:50:40;;;;;;;0.70;0.70;;;7.50;74.10;;;6.58;61.57;96114.22;5081594;28;20269;-33